Machelen, Belgium
Current Conditions -  °F | °C
As of 8:50 AM on Wednesday 26 Nov 2014 (Local Time) from EBBR Reporting Station
Few Clouds Few Clouds  
Wind Chill: 37°   Ceiling: Unl
Heat Index: 41°   Visibility: 4mi
Dew Point: 37°   Wind: 6mph
Humidity: 87%   Direction: 110°ESE
Pressure: 29.94"   Gusts: NA
Location:  50.91°N, 4.44°E
Report Text: EBBR 260750Z 11005KT 7000 FEW027 05/03 Q1014 NOSIG
Loading
Personal Weather Stations






























Interactive Weather Map New forecast layout! Learn more

10-Day Weather Forecast

Advertisements
Track Severe Weather on mobile